RKPK/PUS METAR and TAF weather

Enter ICAO airport designator
Station Type Date Time Source
RKPK METAR 2022/06/28 14:35 UTC NOAA

RKPK 281435Z 21015KT 9999 SCT005 BKN010 BKN030 26/24 Q1008 RMK CIG010


Station Type Date Time Source
RKPK Decoded METAR 2022/06/28 14:35 UTC NOAA

Pusan / Kimhae International Airport, Korea, South (RKPK) 35-11N 128-56E 6M
Jun 28, 2022 - 10:35 AM EDT / 2022.06.28 1435 UTC
Wind: from the SSW (210 degrees) at 17 MPH (15 KT):0
Visibility: greater than 7 mile(s):0
Sky conditions: mostly cloudy
Temperature: 78 F (26 C)
Dew Point: 75 F (24 C)
Relative Humidity: 88%
Pressure (altimeter): 29.77 in. Hg (1008 hPa)
ob: RKPK 281435Z 21015KT 9999 SCT005 BKN010 BKN030 26/24 Q1008 RMK CIG010
cycle: 14

Station Type Date Time Source
RKPK TAF 2022/06/28 12:42 UTC NOAA

TAF COR TAF COR RKPK 281100Z 2812/2918 19013KT 4800 BR BKN015 BKN030 TN25/2821Z TX30/2906Z
TEMPO 2812/2823 19012KT -RA BR
BECMG 2900/2901 19010KT 9999 NSW BKN010 BKN030
BECMG 2901/2902 4800 -RA

Example: see airport list